Time;durP1;ratioP1;P1;durP2;ratioP2;P2;SDS_P1;SDS_P2;PMS_P1;PMS_P2;Temp;Humidity;BMP_temperature;BMP_pressure;BME280_temperature;BME280_humidity;BME280_pressure;Samples;Min_cycle;Max_cycle;Signal;HPM_P1;HPM_P2
2021/10/26 00:00:33;;;;;;;;;16.25;14.25;;;;;;;;5016993;28;45389;-66
2021/10/26 00:02:59;;;;;;;;;15.00;13.50;;;;;;;;5016987;28;45299;-66
2021/10/26 00:05:24;;;;;;;;;18.25;15.25;;;;;;;;5016940;28;45390;-65
2021/10/26 00:07:49;;;;;;;;;17.50;16.75;;;;;;;;5015884;28;45515;-67
2021/10/26 00:10:15;;;;;;;;;13.75;13.00;;;;;;;;5015199;28;48200;-66
2021/10/26 00:12:40;;;;;;;;;14.00;12.25;;;;;;;;5016725;28;45455;-65
2021/10/26 00:15:06;;;;;;;;;12.75;12.75;;;;;;;;5016623;28;45327;-65
2021/10/26 00:17:31;;;;;;;;;15.50;14.50;;;;;;;;5015728;28;45316;-66
2021/10/26 00:19:56;;;;;;;;;12.25;11.75;;;;;;;;5016676;28;45219;-65
2021/10/26 00:22:22;;;;;;;;;17.25;17.00;;;;;;;;5015531;28;45254;-65
2021/10/26 00:24:47;;;;;;;;;19.50;17.00;;;;;;;;5016827;28;45208;-65
2021/10/26 00:27:12;;;;;;;;;14.25;13.00;;;;;;;;5015514;28;45586;-66
2021/10/26 00:29:37;;;;;;;;;15.50;13.00;;;;;;;;5016283;28;46817;-66
2021/10/26 00:32:03;;;;;;;;;14.00;13.00;;;;;;;;5016636;28;45240;-66
2021/10/26 00:34:28;;;;;;;;;19.75;14.50;;;;;;;;5016533;28;45213;-65
2021/10/26 00:36:54;;;;;;;;;15.00;14.00;;;;;;;;5016352;28;45490;-65
2021/10/26 00:39:19;;;;;;;;;15.50;12.50;;;;;;;;5016175;28;46188;-65
2021/10/26 00:41:45;;;;;;;;;17.00;12.50;;;;;;;;5016096;28;46116;-66
2021/10/26 00:44:10;;;;;;;;;14.75;12.25;;;;;;;;5016489;28;45691;-65
2021/10/26 00:46:36;;;;;;;;;14.25;12.00;;;;;;;;5016456;28;45631;-66
2021/10/26 00:49:03;;;;;;;;;16.00;11.75;;;;;;;;5016059;28;45439;-66
2021/10/26 00:51:29;;;;;;;;;16.50;13.00;;;;;;;;5016145;28;45425;-66
2021/10/26 00:53:55;;;;;;;;;14.25;10.50;;;;;;;;5016430;28;45448;-65
2021/10/26 00:56:21;;;;;;;;;11.00;11.00;;;;;;;;5016158;28;45308;-66
2021/10/26 00:58:47;;;;;;;;;11.75;10.00;;;;;;;;5015875;28;46520;-66
2021/10/26 01:01:12;;;;;;;;;14.00;12.00;;;;;;;;5016022;28;45294;-64
2021/10/26 01:03:37;;;;;;;;;10.25;10.00;;;;;;;;5016014;28;45333;-66
2021/10/26 01:06:03;;;;;;;;;10.00;8.00;;;;;;;;5016269;28;45506;-66
2021/10/26 01:08:29;;;;;;;;;11.00;9.00;;;;;;;;5015809;28;46186;-65
2021/10/26 01:10:55;;;;;;;;;11.00;9.75;;;;;;;;5015779;28;45457;-65
2021/10/26 01:13:22;;;;;;;;;10.50;9.00;;;;;;;;5015763;28;45471;-67
2021/10/26 01:15:47;;;;;;;;;11.75;9.00;;;;;;;;5014471;28;45605;-66
2021/10/26 01:18:13;;;;;;;;;9.75;9.25;;;;;;;;5015642;28;45458;-67
2021/10/26 01:20:38;;;;;;;;;7.00;7.00;;;;;;;;5015828;28;45455;-64
2021/10/26 01:23:03;;;;;;;;;11.00;9.50;;;;;;;;5014656;28;45359;-66
2021/10/26 01:25:29;;;;;;;;;12.00;9.25;;;;;;;;5015892;28;45545;-65
2021/10/26 01:27:54;;;;;;;;;9.00;8.00;;;;;;;;5015743;28;45324;-65
2021/10/26 01:30:24;;;;;;;;;10.00;9.50;;;;;;;;5015590;28;45424;-65
2021/10/26 01:32:50;;;;;;;;;8.50;6.50;;;;;;;;5015848;28;45308;-64
2021/10/26 01:35:16;;;;;;;;;12.00;9.25;;;;;;;;5015585;28;45224;-65
2021/10/26 01:37:41;;;;;;;;;9.00;7.00;;;;;;;;5015516;28;45537;-65
2021/10/26 01:40:06;;;;;;;;;11.00;9.00;;;;;;;;5015612;28;45385;-65
2021/10/26 01:42:33;;;;;;;;;8.25;7.25;;;;;;;;5015616;28;45411;-65
2021/10/26 01:44:58;;;;;;;;;9.00;8.00;;;;;;;;5016120;28;45901;-66
2021/10/26 01:47:23;;;;;;;;;8.75;8.50;;;;;;;;5013976;28;47179;-65
2021/10/26 01:49:48;;;;;;;;;9.25;7.75;;;;;;;;5014525;28;45779;-64
2021/10/26 01:52:14;;;;;;;;;8.00;7.50;;;;;;;;5015667;28;45517;-64
2021/10/26 01:54:40;;;;;;;;;11.75;9.25;;;;;;;;5015629;28;45632;-65
2021/10/26 01:57:05;;;;;;;;;8.25;8.00;;;;;;;;5015039;28;46076;-65
2021/10/26 01:59:31;;;;;;;;;8.75;7.00;;;;;;;;5015366;28;45418;-66
2021/10/26 02:01:56;;;;;;;;;6.25;6.25;;;;;;;;5015778;28;45325;-66
2021/10/26 02:04:21;;;;;;;;;8.00;8.00;;;;;;;;5015430;28;45197;-64
2021/10/26 02:06:47;;;;;;;;;7.75;7.00;;;;;;;;5015052;28;45319;-65
2021/10/26 02:09:12;;;;;;;;;6.00;6.00;;;;;;;;5014957;28;45561;-66
2021/10/26 02:11:37;;;;;;;;;8.00;6.00;;;;;;;;5015143;28;45291;-66
2021/10/26 02:14:02;;;;;;;;;10.50;5.00;;;;;;;;5015291;28;45575;-67
2021/10/26 02:16:28;;;;;;;;;5.25;5.25;;;;;;;;5015104;28;45343;-65
2021/10/26 02:18:53;;;;;;;;;8.00;5.25;;;;;;;;5015012;28;45352;-64
2021/10/26 02:21:19;;;;;;;;;7.25;4.00;;;;;;;;5013688;28;45262;-66
2021/10/26 02:23:44;;;;;;;;;5.75;5.50;;;;;;;;5015128;28;45588;-65
2021/10/26 02:26:09;;;;;;;;;8.25;5.25;;;;;;;;5013485;28;48282;-66
2021/10/26 02:28:35;;;;;;;;;6.00;5.00;;;;;;;;5014974;28;45331;-65
2021/10/26 02:31:00;;;;;;;;;5.75;4.75;;;;;;;;5015478;28;45455;-65
2021/10/26 02:33:25;;;;;;;;;6.00;5.00;;;;;;;;5015370;28;45199;-65
2021/10/26 02:35:50;;;;;;;;;7.50;6.00;;;;;;;;5014549;28;45393;-66
2021/10/26 02:38:16;;;;;;;;;6.50;5.75;;;;;;;;5014440;28;45413;-65
2021/10/26 02:40:41;;;;;;;;;6.75;5.00;;;;;;;;5014741;28;45386;-65
2021/10/26 02:43:07;;;;;;;;;5.25;4.75;;;;;;;;5014861;28;45389;-66
2021/10/26 02:45:33;;;;;;;;;10.50;4.50;;;;;;;;5014534;28;45490;-66
2021/10/26 02:47:58;;;;;;;;;3.25;3.25;;;;;;;;5015084;28;45334;-63
2021/10/26 02:50:24;;;;;;;;;4.00;4.00;;;;;;;;5014742;28;45357;-66
2021/10/26 02:52:49;;;;;;;;;4.00;4.00;;;;;;;;5013423;28;45464;-65
2021/10/26 02:55:14;;;;;;;;;6.50;4.25;;;;;;;;5014346;28;46052;-66
2021/10/26 02:57:40;;;;;;;;;9.00;5.00;;;;;;;;5014463;28;45437;-66
2021/10/26 03:00:06;;;;;;;;;6.50;6.50;;;;;;;;5015795;28;45284;-66
2021/10/26 03:02:31;;;;;;;;;5.50;5.00;;;;;;;;5018285;28;45220;-66
2021/10/26 03:04:57;;;;;;;;;7.50;5.00;;;;;;;;5017626;28;45286;-66
2021/10/26 03:07:22;;;;;;;;;6.25;5.00;;;;;;;;5017706;28;45243;-67
2021/10/26 03:09:47;;;;;;;;;5.00;5.00;;;;;;;;5016518;28;46401;-67
2021/10/26 03:12:13;;;;;;;;;4.25;4.25;;;;;;;;5018080;28;45819;-68
2021/10/26 03:14:38;;;;;;;;;10.50;6.00;;;;;;;;5017639;28;46019;-66
2021/10/26 03:17:03;;;;;;;;;7.00;6.00;;;;;;;;5017455;28;45482;-64
2021/10/26 03:19:29;;;;;;;;;8.00;8.00;;;;;;;;5017895;28;45786;-68
2021/10/26 03:21:54;;;;;;;;;8.00;4.75;;;;;;;;5018073;28;45384;-67
2021/10/26 03:24:19;;;;;;;;;6.00;6.00;;;;;;;;5017438;28;45584;-67
2021/10/26 03:26:44;;;;;;;;;6.50;5.00;;;;;;;;5017711;28;45249;-67
2021/10/26 03:29:09;;;;;;;;;4.00;4.00;;;;;;;;5017650;28;45311;-64
2021/10/26 03:31:35;;;;;;;;;11.75;7.50;;;;;;;;5017612;28;45546;-66
2021/10/26 03:34:00;;;;;;;;;9.50;7.50;;;;;;;;5016225;28;47143;-65
2021/10/26 03:36:25;;;;;;;;;9.75;7.00;;;;;;;;5017065;28;45424;-66
2021/10/26 03:38:52;;;;;;;;;10.25;10.00;;;;;;;;5017143;28;45514;-67
2021/10/26 03:41:17;;;;;;;;;10.00;9.50;;;;;;;;5017775;28;45420;-65
2021/10/26 03:43:42;;;;;;;;;11.75;10.25;;;;;;;;5016945;28;46400;-67
2021/10/26 03:46:08;;;;;;;;;11.75;10.25;;;;;;;;5017276;28;45366;-67
2021/10/26 03:48:33;;;;;;;;;14.00;11.50;;;;;;;;5017682;28;45393;-65
2021/10/26 03:50:58;;;;;;;;;12.50;9.75;;;;;;;;5017608;28;45464;-66
2021/10/26 03:53:23;;;;;;;;;14.00;11.00;;;;;;;;5017138;28;45422;-65
2021/10/26 03:55:49;;;;;;;;;14.50;12.00;;;;;;;;5017114;28;45545;-65
2021/10/26 03:58:14;;;;;;;;;14.25;13.75;;;;;;;;5016069;28;45372;-65
2021/10/26 04:00:40;;;;;;;;;14.00;12.00;;;;;;;;5017445;28;45561;-66
2021/10/26 04:03:05;;;;;;;;;17.25;14.25;;;;;;;;5016996;28;45560;-66
2021/10/26 04:05:45;;;;;;;;;16.00;13.25;;;;;;;;5017189;28;45348;-65
2021/10/26 04:10:52;;;;;;;;;21.75;18.00;;;;;;;;5016457;28;45297;-66
2021/10/26 04:13:19;;;;;;;;;20.00;14.00;;;;;;;;5015879;28;45555;-65
2021/10/26 04:15:45;;;;;;;;;15.75;14.50;;;;;;;;5016496;28;45247;-67
2021/10/26 04:18:10;;;;;;;;;14.50;13.00;;;;;;;;5015310;28;45255;-65
2021/10/26 04:20:35;;;;;;;;;14.25;10.50;;;;;;;;5017087;28;45304;-66
2021/10/26 04:23:00;;;;;;;;;10.75;8.00;;;;;;;;5016672;28;45353;-67
2021/10/26 04:25:26;;;;;;;;;21.00;16.00;;;;;;;;5017108;28;45445;-65
2021/10/26 04:27:51;;;;;;;;;14.25;12.50;;;;;;;;5017696;28;45464;-65
2021/10/26 04:30:16;;;;;;;;;14.50;12.75;;;;;;;;5016375;28;45224;-65
2021/10/26 04:32:41;;;;;;;;;15.50;11.75;;;;;;;;5016755;28;46224;-64
2021/10/26 04:35:07;;;;;;;;;14.00;13.00;;;;;;;;5015182;28;45657;-66
2021/10/26 04:37:32;;;;;;;;;18.00;14.75;;;;;;;;5015306;28;45405;-64
2021/10/26 04:39:58;;;;;;;;;15.00;11.50;;;;;;;;5016382;28;45285;-64
2021/10/26 04:42:23;;;;;;;;;15.25;12.25;;;;;;;;5014816;28;48533;-66
2021/10/26 04:44:48;;;;;;;;;15.50;12.50;;;;;;;;5016291;28;45446;-65
2021/10/26 04:47:15;;;;;;;;;14.50;14.25;;;;;;;;5015267;28;45414;-66
2021/10/26 04:49:41;;;;;;;;;13.00;9.25;;;;;;;;5016361;28;45493;-66
2021/10/26 04:52:06;;;;;;;;;16.00;12.00;;;;;;;;5016397;28;46373;-65
2021/10/26 04:54:31;;;;;;;;;15.00;12.75;;;;;;;;5016063;28;45357;-66
2021/10/26 04:56:56;;;;;;;;;15.50;10.25;;;;;;;;5016364;28;45242;-66
2021/10/26 04:59:22;;;;;;;;;12.75;12.75;;;;;;;;5016313;28;45180;-65
2021/10/26 05:01:47;;;;;;;;;9.00;6.50;;;;;;;;5014681;28;48607;-65
2021/10/26 05:04:12;;;;;;;;;11.00;10.00;;;;;;;;5016000;28;45217;-66
2021/10/26 05:06:37;;;;;;;;;8.50;8.50;;;;;;;;5016415;28;45276;-67
2021/10/26 05:09:04;;;;;;;;;11.00;10.00;;;;;;;;5016117;28;45201;-67
2021/10/26 05:11:29;;;;;;;;;16.25;12.50;;;;;;;;5015905;28;46076;-67
2021/10/26 05:13:54;;;;;;;;;12.75;11.50;;;;;;;;5015885;28;45421;-67
2021/10/26 05:16:20;;;;;;;;;12.75;12.25;;;;;;;;5015844;28;45339;-66
2021/10/26 05:18:50;;;;;;;;;15.25;12.25;;;;;;;;5016061;28;45231;-65
2021/10/26 05:21:20;;;;;;;;;12.25;11.25;;;;;;;;5015495;28;45494;-67
2021/10/26 05:23:47;;;;;;;;;18.00;17.50;;;;;;;;5015214;28;45270;-67
2021/10/26 05:26:13;;;;;;;;;11.75;10.00;;;;;;;;5015673;28;45428;-66
2021/10/26 05:28:38;;;;;;;;;11.75;11.00;;;;;;;;5016011;28;45506;-66
2021/10/26 05:31:04;;;;;;;;;14.50;13.00;;;;;;;;5015406;28;46166;-67
2021/10/26 05:33:29;;;;;;;;;18.75;15.75;;;;;;;;5015457;28;45361;-67
2021/10/26 05:35:54;;;;;;;;;13.25;12.00;;;;;;;;5015435;28;45666;-67
2021/10/26 05:38:19;;;;;;;;;14.00;14.00;;;;;;;;5015582;28;45481;-67
2021/10/26 05:40:45;;;;;;;;;11.00;10.75;;;;;;;;5015058;28;46234;-67
2021/10/26 05:43:10;;;;;;;;;17.00;15.25;;;;;;;;5014199;28;45406;-65
2021/10/26 05:45:35;;;;;;;;;15.50;14.50;;;;;;;;5015480;28;45379;-65
2021/10/26 05:48:00;;;;;;;;;13.75;13.00;;;;;;;;5015825;28;45400;-66
2021/10/26 05:50:26;;;;;;;;;14.75;12.75;;;;;;;;5015053;28;45377;-65
2021/10/26 05:52:51;;;;;;;;;19.75;17.25;;;;;;;;5013949;28;45490;-66
2021/10/26 05:55:17;;;;;;;;;14.50;14.00;;;;;;;;5015203;28;45320;-66
2021/10/26 05:57:42;;;;;;;;;15.50;13.00;;;;;;;;5015325;28;45590;-65
2021/10/26 06:00:08;;;;;;;;;16.50;16.00;;;;;;;;5015263;28;46719;-64
2021/10/26 06:02:33;;;;;;;;;20.25;16.50;;;;;;;;5014952;28;45493;-66
2021/10/26 06:04:58;;;;;;;;;12.75;12.25;;;;;;;;5015234;28;45240;-68
2021/10/26 06:07:23;;;;;;;;;21.25;15.50;;;;;;;;5015364;28;45588;-67
2021/10/26 06:09:49;;;;;;;;;19.75;17.25;;;;;;;;5014976;28;45685;-65
2021/10/26 06:12:22;;;;;;;;;20.00;16.50;;;;;;;;5015107;28;45209;-65
2021/10/26 06:14:47;;;;;;;;;21.00;16.00;;;;;;;;5015179;28;45315;-66
2021/10/26 06:17:12;;;;;;;;;19.50;18.00;;;;;;;;5015154;28;45153;-65
2021/10/26 06:19:38;;;;;;;;;16.75;13.75;;;;;;;;5015085;28;45442;-64
2021/10/26 06:22:03;;;;;;;;;18.75;15.00;;;;;;;;5013621;28;45286;-65
2021/10/26 06:24:29;;;;;;;;;17.00;15.75;;;;;;;;5014917;28;45305;-65
2021/10/26 06:26:54;;;;;;;;;16.75;15.50;;;;;;;;5014993;28;45475;-67
2021/10/26 06:29:20;;;;;;;;;18.00;14.25;;;;;;;;5014602;28;46755;-69
2021/10/26 06:31:45;;;;;;;;;17.75;16.00;;;;;;;;5014545;28;45429;-66
2021/10/26 06:34:10;;;;;;;;;16.00;13.50;;;;;;;;5015188;28;45251;-68
2021/10/26 06:36:36;;;;;;;;;15.00;11.75;;;;;;;;5018332;28;45555;-64
2021/10/26 06:39:02;;;;;;;;;16.00;14.50;;;;;;;;5018006;28;45450;-64
2021/10/26 06:41:27;;;;;;;;;14.00;13.00;;;;;;;;5017921;28;45314;-67
2021/10/26 06:43:52;;;;;;;;;16.25;16.00;;;;;;;;5017932;28;45382;-66
2021/10/26 06:46:17;;;;;;;;;17.75;12.75;;;;;;;;5017019;28;45470;-64
2021/10/26 06:48:43;;;;;;;;;14.75;13.50;;;;;;;;5027541;28;45855;-67
2021/10/26 06:51:08;;;;;;;;;12.25;11.50;;;;;;;;5030137;28;45467;-67
2021/10/26 06:53:38;;;;;;;;;13.75;13.75;;;;;;;;5029933;28;45491;-69
2021/10/26 06:56:07;;;;;;;;;12.50;11.75;;;;;;;;5037109;28;45467;-69
2021/10/26 06:58:32;;;;;;;;;14.25;12.75;;;;;;;;5035667;28;48426;-70
2021/10/26 07:00:57;;;;;;;;;15.75;12.75;;;;;;;;5036706;28;45407;-69
2021/10/26 07:03:23;;;;;;;;;14.75;13.00;;;;;;;;5017932;28;45589;-67
2021/10/26 07:05:48;;;;;;;;;13.75;13.00;;;;;;;;5016366;28;45577;-69
2021/10/26 07:08:13;;;;;;;;;15.25;14.75;;;;;;;;5017991;28;46434;-71
2021/10/26 07:10:38;;;;;;;;;13.25;11.00;;;;;;;;5016255;28;46030;-71
2021/10/26 07:13:05;;;;;;;;;14.25;13.00;;;;;;;;5018296;28;45413;-69
2021/10/26 07:15:32;;;;;;;;;17.00;16.75;;;;;;;;5017497;28;45526;-69
2021/10/26 07:17:57;;;;;;;;;14.00;13.00;;;;;;;;5017247;28;45550;-67
2021/10/26 07:20:23;;;;;;;;;15.00;15.00;;;;;;;;5017209;28;45333;-68
2021/10/26 07:22:54;;;;;;;;;14.25;12.25;;;;;;;;5017490;28;45250;-66
2021/10/26 07:25:20;;;;;;;;;12.50;10.75;;;;;;;;5016278;28;45352;-70
2021/10/26 07:27:47;;;;;;;;;12.50;12.50;;;;;;;;5016040;28;46517;-68
2021/10/26 07:30:13;;;;;;;;;14.25;12.50;;;;;;;;5018078;28;45327;-68
2021/10/26 07:32:39;;;;;;;;;14.75;12.50;;;;;;;;5017345;28;45366;-72
2021/10/26 07:35:05;;;;;;;;;17.25;17.25;;;;;;;;5017834;28;45712;-70
2021/10/26 07:37:42;;;;;;;;;19.75;17.00;;;;;;;;5017292;28;45570;-69
2021/10/26 07:40:08;;;;;;;;;17.50;12.00;;;;;;;;5017079;28;45318;-68
2021/10/26 07:42:33;;;;;;;;;17.00;15.25;;;;;;;;5017135;28;45352;-67
2021/10/26 07:44:58;;;;;;;;;17.00;14.00;;;;;;;;5017365;28;45426;-65
2021/10/26 07:47:25;;;;;;;;;22.25;16.25;;;;;;;;5014326;28;46284;-68
2021/10/26 07:49:51;;;;;;;;;18.00;17.25;;;;;;;;5015834;28;45538;-64
2021/10/26 07:52:17;;;;;;;;;16.50;14.00;;;;;;;;5015733;28;45370;-65
2021/10/26 07:54:49;;;;;;;;;20.25;17.50;;;;;;;;5016152;28;45666;-68
2021/10/26 07:57:15;;;;;;;;;19.75;16.75;;;;;;;;5016901;28;45343;-66
2021/10/26 07:59:43;;;;;;;;;20.00;16.00;;;;;;;;5016549;28;45445;-67
2021/10/26 08:02:08;;;;;;;;;21.75;19.50;;;;;;;;5015549;28;45229;-65
2021/10/26 08:04:33;;;;;;;;;22.00;18.75;;;;;;;;5016835;28;45225;-65
2021/10/26 08:07:00;;;;;;;;;17.75;15.00;;;;;;;;5016734;28;45657;-65
2021/10/26 08:09:26;;;;;;;;;23.00;18.50;;;;;;;;5015636;28;45242;-67
2021/10/26 08:11:51;;;;;;;;;25.75;24.75;;;;;;;;5016518;28;46176;-70
2021/10/26 08:14:16;;;;;;;;;26.50;20.25;;;;;;;;5017336;28;45614;-69
2021/10/26 08:16:41;;;;;;;;;23.50;18.75;;;;;;;;5015185;28;48184;-69
2021/10/26 08:19:07;;;;;;;;;14.00;13.25;;;;;;;;5016759;28;45371;-69
2021/10/26 08:21:32;;;;;;;;;17.75;15.50;;;;;;;;5015404;28;45379;-68
2021/10/26 08:23:59;;;;;;;;;19.50;18.75;;;;;;;;5015474;28;45643;-67
2021/10/26 08:26:29;;;;;;;;;16.75;14.50;;;;;;;;5016296;28;45457;-69
2021/10/26 08:29:04;;;;;;;;;22.00;18.50;;;;;;;;5016707;28;45232;-70
2021/10/26 08:31:44;;;;;;;;;22.00;20.50;;;;;;;;5016732;28;45315;-67
2021/10/26 08:36:35;;;;;;;;;15.00;15.00;;;;;;;;5016199;28;45477;-71
2021/10/26 08:39:00;;;;;;;;;25.25;20.75;;;;;;;;5016173;28;45484;-68
2021/10/26 08:41:26;;;;;;;;;25.50;20.25;;;;;;;;5016425;28;45395;-69
2021/10/26 08:43:52;;;;;;;;;25.00;21.75;;;;;;;;5016573;28;45372;-70
2021/10/26 08:46:18;;;;;;;;;32.50;24.25;;;;;;;;5016505;28;46227;-69
2021/10/26 08:48:46;;;;;;;;;24.25;23.00;;;;;;;;5016339;28;45233;-69
2021/10/26 08:51:11;;;;;;;;;18.25;16.00;;;;;;;;5016320;28;45353;-70
2021/10/26 08:53:36;;;;;;;;;17.50;14.75;;;;;;;;5016217;28;45210;-68
2021/10/26 08:56:03;;;;;;;;;16.25;15.75;;;;;;;;5015980;28;45786;-70
2021/10/26 08:58:30;;;;;;;;;21.00;16.00;;;;;;;;5015615;28;45326;-67
2021/10/26 09:01:00;;;;;;;;;20.75;19.75;;;;;;;;5016035;28;45406;-68
2021/10/26 09:03:29;;;;;;;;;17.25;14.50;;;;;;;;5016301;28;45297;-68
2021/10/26 09:05:54;;;;;;;;;15.00;14.25;;;;;;;;5014424;28;48327;-70
2021/10/26 09:08:25;;;;;;;;;14.25;13.50;;;;;;;;5015948;28;45379;-64
2021/10/26 09:10:51;;;;;;;;;20.50;17.75;;;;;;;;5016168;28;45445;-73
2021/10/26 09:18:47;;;;;;;;;18.00;11.50;;;;;;;;5016001;28;45339;-66
2021/10/26 09:21:31;;;;;;;;;18.00;13.75;;;;;;;;5015785;28;45517;-70
2021/10/26 09:23:57;;;;;;;;;21.25;18.25;;;;;;;;5015724;28;45193;-67
2021/10/26 09:26:41;;;;;;;;;17.75;14.25;;;;;;;;5015640;28;46485;-67
2021/10/26 09:29:07;;;;;;;;;14.50;14.25;;;;;;;;5015662;28;45483;-70
2021/10/26 09:31:32;;;;;;;;;19.25;15.25;;;;;;;;5015581;28;45354;-66
2021/10/26 09:34:03;;;;;;;;;18.50;16.00;;;;;;;;5014139;28;45312;-65
2021/10/26 09:36:30;;;;;;;;;19.00;13.50;;;;;;;;5015286;28;46270;-66
2021/10/26 09:39:06;;;;;;;;;15.00;14.75;;;;;;;;5013756;28;45260;-67
2021/10/26 09:41:36;;;;;;;;;17.75;14.00;;;;;;;;5015751;28;45423;-69
2021/10/26 09:44:11;;;;;;;;;17.00;15.25;;;;;;;;5015464;28;45364;-69
2021/10/26 09:46:37;;;;;;;;;17.25;12.50;;;;;;;;5014902;28;45418;-67
2021/10/26 09:49:03;;;;;;;;;18.00;16.00;;;;;;;;5013550;28;45291;-69
2021/10/26 09:51:32;;;;;;;;;13.50;12.25;;;;;;;;5015151;28;45345;-69
2021/10/26 09:53:57;;;;;;;;;18.75;13.50;;;;;;;;5015247;28;45532;-69
2021/10/26 09:56:23;;;;;;;;;27.50;15.25;;;;;;;;5013820;28;46920;-69
2021/10/26 09:58:48;;;;;;;;;14.50;12.25;;;;;;;;5014399;28;45360;-67
2021/10/26 10:01:14;;;;;;;;;11.50;11.50;;;;;;;;5013972;28;45861;-69
2021/10/26 10:03:42;;;;;;;;;14.25;11.00;;;;;;;;5014394;28;45530;-68
2021/10/26 10:06:10;;;;;;;;;14.50;12.00;;;;;;;;5013547;28;47933;-71
2021/10/26 10:08:36;;;;;;;;;15.00;11.25;;;;;;;;5014853;28;45413;-68
2021/10/26 10:11:09;;;;;;;;;16.00;12.75;;;;;;;;5017233;28;45321;-67
2021/10/26 10:13:34;;;;;;;;;17.00;12.75;;;;;;;;5018239;28;45288;-66
2021/10/26 10:16:04;;;;;;;;;18.75;15.75;;;;;;;;5018109;28;46394;-67
2021/10/26 10:18:29;;;;;;;;;18.00;15.25;;;;;;;;5018406;28;45475;-68
2021/10/26 10:20:55;;;;;;;;;12.00;9.75;;;;;;;;5017996;28;45450;-65
2021/10/26 10:23:22;;;;;;;;;11.50;11.00;;;;;;;;5018580;28;45332;-65
2021/10/26 10:25:47;;;;;;;;;11.75;9.50;;;;;;;;5018096;28;46165;-68
2021/10/26 10:28:14;;;;;;;;;16.00;10.25;;;;;;;;5016564;28;45954;-67
2021/10/26 10:30:39;;;;;;;;;14.75;11.00;;;;;;;;5017208;28;45567;-67
2021/10/26 10:33:05;;;;;;;;;14.50;12.00;;;;;;;;5018511;28;45236;-67
2021/10/26 10:35:31;;;;;;;;;12.25;11.25;;;;;;;;5018062;28;46429;-67
2021/10/26 10:37:58;;;;;;;;;12.50;10.50;;;;;;;;5018312;28;45239;-66
2021/10/26 10:40:25;;;;;;;;;13.50;10.75;;;;;;;;5018607;28;45423;-69
2021/10/26 10:42:52;;;;;;;;;18.50;17.50;;;;;;;;5018530;28;45373;-72
2021/10/26 10:45:25;;;;;;;;;10.00;9.00;;;;;;;;5017645;28;46030;-66
2021/10/26 10:47:51;;;;;;;;;0.00;0.00;;;;;;;;5016712;28;45363;-68
2021/10/26 10:50:19;;;;;;;;;8.00;8.00;;;;;;;;5017704;28;45462;-65
2021/10/26 10:52:45;;;;;;;;;9.00;8.75;;;;;;;;5017924;28;45223;-68
2021/10/26 10:55:22;;;;;;;;;11.00;9.50;;;;;;;;5017580;28;45492;-69
2021/10/26 10:57:47;;;;;;;;;8.50;7.50;;;;;;;;5017483;28;45402;-67
2021/10/26 11:00:24;;;;;;;;;10.00;8.00;;;;;;;;5017568;28;45388;-70
2021/10/26 11:02:51;;;;;;;;;12.25;9.50;;;;;;;;5016822;28;45427;-68
2021/10/26 11:05:39;;;;;;;;;9.50;8.00;;;;;;;;5017262;28;46266;-70
2021/10/26 11:08:08;;;;;;;;;13.75;10.00;;;;;;;;5016209;28;45358;-69
2021/10/26 11:10:48;;;;;;;;;14.00;12.00;;;;;;;;5017691;28;45327;-69
2021/10/26 11:13:26;;;;;;;;;11.00;9.50;;;;;;;;5017832;28;45290;-67
2021/10/26 11:15:52;;;;;;;;;6.75;6.00;;;;;;;;5015713;28;46792;-66
2021/10/26 11:18:38;;;;;;;;;11.50;9.25;;;;;;;;5017167;28;45401;-69
2021/10/26 11:21:04;;;;;;;;;5.75;4.00;;;;;;;;5006223;28;45375;-69
2021/10/26 11:23:33;;;;;;;;;9.75;7.50;;;;;;;;5017438;28;45335;-69
2021/10/26 11:26:03;;;;;;;;;8.00;8.00;;;;;;;;5015584;28;46746;-65
2021/10/26 11:28:29;;;;;;;;;14.00;11.25;;;;;;;;5015583;28;45297;-68
2021/10/26 11:30:59;;;;;;;;;6.25;6.25;;;;;;;;5015972;28;45336;-69
2021/10/26 11:33:24;;;;;;;;;15.00;11.00;;;;;;;;5017959;28;45341;-69
2021/10/26 11:35:51;;;;;;;;;6.50;6.50;;;;;;;;5015413;28;47310;-70
2021/10/26 11:38:26;;;;;;;;;7.00;7.00;;;;;;;;5017155;28;45431;-71
2021/10/26 11:40:52;;;;;;;;;9.00;7.25;;;;;;;;5017290;28;45376;-68
2021/10/26 11:43:17;;;;;;;;;7.75;6.00;;;;;;;;5017539;28;45401;-69
2021/10/26 11:46:12;;;;;;;;;7.25;6.25;;;;;;;;5016971;28;46240;-68
2021/10/26 11:48:46;;;;;;;;;6.00;6.00;;;;;;;;4998352;28;45877;-70
2021/10/26 11:51:20;;;;;;;;;6.00;5.00;;;;;;;;5015392;28;45315;-65
2021/10/26 11:53:45;;;;;;;;;6.25;6.25;;;;;;;;5016783;28;45313;-66
2021/10/26 11:56:21;;;;;;;;;9.00;6.00;;;;;;;;5016068;28;45368;-69
2021/10/26 11:58:54;;;;;;;;;5.00;4.75;;;;;;;;5016642;28;45568;-69
2021/10/26 12:01:21;;;;;;;;;8.00;6.00;;;;;;;;5016699;28;45391;-66
2021/10/26 12:03:47;;;;;;;;;9.25;5.75;;;;;;;;5016896;28;45212;-67
2021/10/26 12:06:12;;;;;;;;;9.75;6.25;;;;;;;;5016434;28;45400;-69
2021/10/26 12:08:39;;;;;;;;;4.50;4.00;;;;;;;;5016902;28;45300;-67
2021/10/26 12:11:05;;;;;;;;;6.00;3.50;;;;;;;;5016681;28;45465;-69
2021/10/26 12:13:32;;;;;;;;;7.25;5.50;;;;;;;;5016416;28;45237;-70
2021/10/26 12:16:11;;;;;;;;;5.25;5.25;;;;;;;;5016397;28;45619;-68
2021/10/26 12:18:36;;;;;;;;;8.50;7.50;;;;;;;;5014566;28;45455;-69
2021/10/26 12:21:03;;;;;;;;;5.75;5.75;;;;;;;;5016297;28;45248;-67
2021/10/26 12:23:29;;;;;;;;;5.25;4.75;;;;;;;;5015352;28;45382;-69
2021/10/26 12:25:57;;;;;;;;;7.00;5.50;;;;;;;;5015561;28;45410;-70
2021/10/26 12:28:24;;;;;;;;;6.75;6.00;;;;;;;;5015921;28;45328;-69
2021/10/26 12:30:50;;;;;;;;;6.50;6.00;;;;;;;;5015138;28;45403;-69
2021/10/26 12:33:18;;;;;;;;;10.50;6.00;;;;;;;;5015450;28;45292;-68
2021/10/26 12:35:50;;;;;;;;;5.00;4.25;;;;;;;;5015304;28;46202;-68
2021/10/26 12:38:38;;;;;;;;;35.50;30.50;;;;;;;;5015730;28;45335;-65
2021/10/26 12:41:05;;;;;;;;;6.00;4.25;;;;;;;;5016014;28;45514;-68
2021/10/26 12:43:30;;;;;;;;;5.25;3.75;;;;;;;;5016227;28;45434;-66
2021/10/26 12:45:57;;;;;;;;;4.75;4.75;;;;;;;;5015936;28;46165;-69
2021/10/26 12:48:31;;;;;;;;;5.00;4.00;;;;;;;;5016286;28;45359;-69
2021/10/26 12:51:01;;;;;;;;;8.75;6.25;;;;;;;;5015202;28;45450;-69
2021/10/26 12:53:35;;;;;;;;;7.50;6.25;;;;;;;;5016123;28;45419;-67
2021/10/26 12:56:03;;;;;;;;;7.00;6.00;;;;;;;;5015669;28;45388;-69
2021/10/26 12:58:31;;;;;;;;;7.25;7.25;;;;;;;;5016124;28;45369;-69
2021/10/26 13:00:56;;;;;;;;;7.00;5.50;;;;;;;;5015622;28;45482;-69
2021/10/26 13:03:28;;;;;;;;;8.00;7.75;;;;;;;;5016022;28;45283;-70
2021/10/26 13:06:02;;;;;;;;;8.75;6.50;;;;;;;;5015699;28;47101;-68
2021/10/26 13:08:27;;;;;;;;;5.00;4.75;;;;;;;;5015949;28;45359;-69
2021/10/26 13:10:53;;;;;;;;;4.50;4.50;;;;;;;;5015283;28;45370;-70
2021/10/26 13:13:19;;;;;;;;;6.25;4.00;;;;;;;;5016189;28;45320;-70
2021/10/26 13:15:48;;;;;;;;;4.75;4.75;;;;;;;;5013831;28;45641;-70
2021/10/26 13:18:22;;;;;;;;;4.25;4.25;;;;;;;;5015382;28;45436;-71
2021/10/26 13:20:51;;;;;;;;;5.25;4.00;;;;;;;;5014503;28;45293;-69
2021/10/26 13:23:26;;;;;;;;;8.75;4.25;;;;;;;;5015673;28;45389;-69
2021/10/26 13:25:54;;;;;;;;;5.25;5.25;;;;;;;;5015408;28;46027;-69
2021/10/26 13:28:24;;;;;;;;;4.00;3.50;;;;;;;;5015291;28;45317;-68
2021/10/26 13:30:49;;;;;;;;;6.75;4.00;;;;;;;;5015582;28;45235;-69
2021/10/26 13:33:15;;;;;;;;;6.00;6.00;;;;;;;;5015587;28;45544;-69
2021/10/26 13:35:44;;;;;;;;;8.00;7.00;;;;;;;;5015328;28;45338;-68
2021/10/26 13:38:10;;;;;;;;;4.00;4.00;;;;;;;;5015537;28;45336;-65
2021/10/26 13:40:35;;;;;;;;;5.75;4.00;;;;;;;;5015391;28;45477;-69
2021/10/26 13:43:02;;;;;;;;;4.00;4.00;;;;;;;;5015730;28;45590;-69
2021/10/26 13:45:27;;;;;;;;;6.25;5.00;;;;;;;;5013342;28;46773;-70
2021/10/26 13:47:53;;;;;;;;;5.00;5.00;;;;;;;;5013691;28;45302;-68
2021/10/26 13:50:18;;;;;;;;;7.00;4.50;;;;;;;;5015496;28;45346;-70
2021/10/26 13:52:43;;;;;;;;;5.25;5.25;;;;;;;;5015239;28;45507;-68
2021/10/26 13:55:09;;;;;;;;;5.75;3.00;;;;;;;;5014933;28;46175;-69
2021/10/26 13:57:38;;;;;;;;;5.75;4.00;;;;;;;;5014965;28;45344;-65
2021/10/26 14:00:09;;;;;;;;;7.50;4.50;;;;;;;;5015514;28;45470;-68
2021/10/26 14:02:36;;;;;;;;;3.00;3.00;;;;;;;;5014406;28;45202;-69
2021/10/26 14:05:01;;;;;;;;;5.25;5.25;;;;;;;;5014950;28;45942;-67
2021/10/26 14:07:27;;;;;;;;;6.00;5.25;;;;;;;;5013626;28;45234;-71
2021/10/26 14:09:52;;;;;;;;;15.50;9.75;;;;;;;;5015001;28;45475;-69
2021/10/26 14:12:17;;;;;;;;;5.75;4.00;;;;;;;;5014928;28;45545;-70
2021/10/26 14:14:42;;;;;;;;;8.00;7.00;;;;;;;;5013194;28;46693;-68
2021/10/26 14:17:08;;;;;;;;;7.00;6.00;;;;;;;;5014871;28;45327;-72
2021/10/26 14:19:33;;;;;;;;;5.00;5.00;;;;;;;;5015429;28;45447;-67
2021/10/26 14:21:58;;;;;;;;;8.50;6.50;;;;;;;;5013662;28;45416;-70
2021/10/26 14:24:27;;;;;;;;;5.25;4.25;;;;;;;;5013242;28;48207;-69
2021/10/26 14:26:52;;;;;;;;;4.75;3.50;;;;;;;;5014928;28;45232;-70
2021/10/26 14:29:17;;;;;;;;;4.25;4.00;;;;;;;;5015122;28;45335;-70
2021/10/26 14:31:44;;;;;;;;;6.00;6.00;;;;;;;;5015231;28;45316;-68
2021/10/26 14:34:11;;;;;;;;;6.00;6.00;;;;;;;;5013399;28;47426;-65
2021/10/26 14:36:51;;;;;;;;;8.00;6.00;;;;;;;;5014829;28;45430;-65